^^
Saratoga-Weather Station Historical Data
Daily Summary for July 20, 2020 Units:  Both    English   Metric
Daily Weekly Monthly Yearly Custom
  High: Low: Average:
Temperature: 68 °F /  20 °C 45.9 °F /  7.7 °C 58.1 °F /  14.5 °C
Dew Point: 44.1 °F /  6.7 °C 33.3 °F /  0.7 °C 38.5 °F /  3.6 °C
Humidity: 75% 33% 51%
Wind Speed: 16.1mph /  25.9km/h - 3.3mph /  5.3km/h
Wind Gust: 18mph /  29km/h - -
Wind- - ESE
Pressure: 29.9 in /  1013.9 hPa 29.8 in /  1009.8 hPa -
Precipitation: 0 in /  0.0 mm    
Historical Graphs
 
 
Tabular Data for July 20, 2020
Time Temperature Dew Point Pressure Wind Wind Speed Wind Gust Humidity Rainfall Rate (Hourly) solar
00:04 56.1 °F /  13.4 °C 44.1 °F /  6.7 °C 29.9in /  1013.9hPa SE 2.9mph /  4.7km/h 11mph /  17.7km/h 64% 0in /  0.0mm 0 W/m2
00:09 56.1 °F /  13.4 °C 44.1 °F /  6.7 °C 29.9in /  1013.9hPa East 2.9mph /  4.7km/h 4mph /  6.4km/h 64% 0in /  0.0mm 0 W/m2
00:14 56.1 °F /  13.4 °C 44.1 °F /  6.7 °C 29.9in /  1013.9hPa ESE 2.9mph /  4.7km/h 11mph /  17.7km/h 64% 0in /  0.0mm 0 W/m2
00:19 55.9 °F /  13.3 °C 43.9 °F /  6.6 °C 29.9in /  1013.5hPa ENE 0.9mph /  1.4km/h 3mph /  4.8km/h 64% 0in /  0.0mm 0 W/m2
00:24 55.9 °F /  13.3 °C 43.9 °F /  6.6 °C 29.9in /  1013.9hPa ENE 2.9mph /  4.7km/h 11mph /  17.7km/h 64% 0in /  0.0mm 0 W/m2
00:29 55.8 °F /  13.2 °C 43.7 °F /  6.5 °C 29.9in /  1013.9hPa Calm   4mph /  6.4km/h 64% 0in /  0.0mm 0 W/m2
00:34 55.6 °F /  13.1 °C 44.1 °F /  6.7 °C 29.9in /  1013.9hPa ENE 0.9mph /  1.4km/h 3mph /  4.8km/h 65% 0in /  0.0mm 0 W/m2
00:40 55.2 °F /  12.9 °C 44.1 °F /  6.7 °C 29.9in /  1013.9hPa NE 0.9mph /  1.4km/h 2mph /  3.2km/h 66% 0in /  0.0mm 0 W/m2
00:45 54.9 °F /  12.7 °C 44.1 °F /  6.7 °C 29.9in /  1013.9hPa Calm   1mph /  1.6km/h 67% 0in /  0.0mm 0 W/m2
00:50 54.7 °F /  12.6 °C 43.5 °F /  6.4 °C 29.9in /  1013.9hPa Calm   6mph /  9.7km/h 66% 0in /  0.0mm 0 W/m2
00:55 54.7 °F /  12.6 °C 43.9 °F /  6.6 °C 29.9in /  1013.9hPa Calm   1mph /  1.6km/h 67% 0in /  0.0mm 0 W/m2
01:00 54.3 °F /  12.4 °C 43.5 °F /  6.4 °C 29.9in /  1013.9hPa SE 0.9mph /  1.4km/h 5mph /  8km/h 67% 0in /  0.0mm 0 W/m2
01:05 54.1 °F /  12.3 °C 43.3 °F /  6.3 °C 29.9in /  1013.9hPa Calm   1mph /  1.6km/h 67% 0in /  0.0mm 0 W/m2
01:10 54 °F /  12.2 °C 43.3 °F /  6.3 °C 29.9in /  1013.9hPa NNW 2mph /  3.2km/h 4mph /  6.4km/h 67% 0in /  0.0mm 0 W/m2
01:15 53.8 °F /  12.1 °C 43.5 °F /  6.4 °C 29.9in /  1013.9hPa NNE 2mph /  3.2km/h 2mph /  3.2km/h 68% 0in /  0.0mm 0 W/m2
01:20 53.4 °F /  11.9 °C 43.2 °F /  6.2 °C 29.9in /  1013.9hPa East 0.9mph /  1.4km/h 4mph /  6.4km/h 68% 0in /  0.0mm 0 W/m2
01:25 53.2 °F /  11.8 °C 43.3 °F /  6.3 °C 29.9in /  1013.9hPa East 0.9mph /  1.4km/h 2mph /  3.2km/h 69% 0in /  0.0mm 0 W/m2
01:30 53.2 °F /  11.8 °C 43.3 °F /  6.3 °C 29.9in /  1013.5hPa East 2mph /  3.2km/h 2mph /  3.2km/h 69% 0in /  0.0mm 0 W/m2
01:35 53.1 °F /  11.7 °C 43.2 °F /  6.2 °C 29.9in /  1013.5hPa North 0.9mph /  1.4km/h 2mph /  3.2km/h 69% 0in /  0.0mm 0 W/m2
01:40 53.1 °F /  11.7 °C 42.8 °F /  6 °C 29.9in /  1013.5hPa Calm   1mph /  1.6km/h 68% 0in /  0.0mm 0 W/m2
01:45 53.1 °F /  11.7 °C 43.2 °F /  6.2 °C 29.9in /  1013.5hPa ENE 2.9mph /  4.7km/h 3mph /  4.8km/h 69% 0in /  0.0mm 0 W/m2
01:50 52.9 °F /  11.6 °C 43.3 °F /  6.3 °C 29.9in /  1013.5hPa ENE 0.9mph /  1.4km/h 1mph /  1.6km/h 70% 0in /  0.0mm 0 W/m2
01:55 52.3 °F /  11.3 °C 42.8 °F /  6 °C 29.9in /  1013.9hPa ENE 0.9mph /  1.4km/h 3mph /  4.8km/h 70% 0in /  0.0mm 0 W/m2
02:00 52.2 °F /  11.2 °C 43 °F /  6.1 °C 29.9in /  1013.5hPa NNE 2.9mph /  4.7km/h 4mph /  6.4km/h 71% 0in /  0.0mm 0 W/m2
02:05 52 °F /  11.1 °C 42.8 °F /  6 °C 29.9in /  1013.5hPa Calm   1mph /  1.6km/h 71% 0in /  0.0mm 0 W/m2
02:10 52 °F /  11.1 °C 42.4 °F /  5.8 °C 29.9in /  1013.5hPa ENE 2mph /  3.2km/h 2mph /  3.2km/h 70% 0in /  0.0mm 0 W/m2
02:15 52 °F /  11.1 °C 42.4 °F /  5.8 °C 29.9in /  1013.5hPa WNW 0.9mph /  1.4km/h 2mph /  3.2km/h 70% 0in /  0.0mm 0 W/m2
02:20 52 °F /  11.1 °C 42.4 °F /  5.8 °C 29.9in /  1013.5hPa NNE 0.9mph /  1.4km/h 4mph /  6.4km/h 70% 0in /  0.0mm 0 W/m2
02:25 51.8 °F /  11 °C 42.3 °F /  5.7 °C 29.9in /  1013.5hPa Calm   2mph /  3.2km/h 70% 0in /  0.0mm 0 W/m2
02:30 51.6 °F /  10.9 °C 42.1 °F /  5.6 °C 29.9in /  1013.5hPa East 2mph /  3.2km/h 4mph /  6.4km/h 70% 0in /  0.0mm 0 W/m2
02:35 51.6 °F /  10.9 °C 42.1 °F /  5.6 °C 29.9in /  1013.5hPa Calm   1mph /  1.6km/h 70% 0in /  0.0mm 0 W/m2
02:40 51.4 °F /  10.8 °C 41.9 °F /  5.5 °C 29.9in /  1013.5hPa NE 3mph /  4.8km/h 3mph /  4.8km/h 70% 0in /  0.0mm 0 W/m2
02:46 51.3 °F /  10.7 °C 42.3 °F /  5.7 °C 29.9in /  1013.5hPa Calm   1mph /  1.6km/h 71% 0in /  0.0mm 0 W/m2
02:51 51.1 °F /  10.6 °C 42.1 °F /  5.6 °C 29.9in /  1013.2hPa NNW 0.9mph /  1.4km/h 1mph /  1.6km/h 71% 0in /  0.0mm 0 W/m2
02:56 50.7 °F /  10.4 °C 42.1 °F /  5.6 °C 29.9in /  1013.2hPa Calm   2mph /  3.2km/h 72% 0in /  0.0mm 0 W/m2
03:01 50.5 °F /  10.3 °C 41.9 °F /  5.5 °C 29.9in /  1013.2hPa Calm   1mph /  1.6km/h 72% 0in /  0.0mm 0 W/m2
03:06 50.4 °F /  10.2 °C 41.7 °F /  5.4 °C 29.9in /  1013.2hPa Calm   1mph /  1.6km/h 72% 0in /  0.0mm 0 W/m2
03:11 50.2 °F /  10.1 °C 41.9 °F /  5.5 °C 29.9in /  1013.2hPa Calm     73% 0in /  0.0mm 0 W/m2
03:16 49.8 °F /  9.9 °C 41.9 °F /  5.5 °C 29.9in /  1013.2hPa Calm   1mph /  1.6km/h 74% 0in /  0.0mm 0 W/m2
03:21 49.5 °F /  9.7 °C 41.5 °F /  5.3 °C 29.9in /  1013.2hPa Calm   1mph /  1.6km/h 74% 0in /  0.0mm 0 W/m2
03:26 49.3 °F /  9.6 °C 41.4 °F /  5.2 °C 29.9in /  1013.2hPa Calm   3mph /  4.8km/h 74% 0in /  0.0mm 0 W/m2
03:31 49.3 °F /  9.6 °C 41.4 °F /  5.2 °C 29.9in /  1013.2hPa West 0.9mph /  1.4km/h 1mph /  1.6km/h 74% 0in /  0.0mm 0 W/m2
03:36 49.1 °F /  9.5 °C 41.2 °F /  5.1 °C 29.9in /  1013.2hPa SSW 2mph /  3.2km/h 3mph /  4.8km/h 74% 0in /  0.0mm 0 W/m2
03:41 48.9 °F /  9.4 °C 41.4 °F /  5.2 °C 29.9in /  1012.9hPa Calm   2mph /  3.2km/h 75% 0in /  0.0mm 0 W/m2
03:46 48.7 °F /  9.3 °C 40.8 °F /  4.9 °C 29.9in /  1013.2hPa Calm   3mph /  4.8km/h 74% 0in /  0.0mm 0 W/m2
03:51 48.7 °F /  9.3 °C 40.8 °F /  4.9 °C 29.9in /  1013.2hPa West 0.9mph /  1.4km/h 1mph /  1.6km/h 74% 0in /  0.0mm 0 W/m2
03:56 48.7 °F /  9.3 °C 40.8 °F /  4.9 °C 29.9in /  1012.9hPa West 0.9mph /  1.4km/h 2mph /  3.2km/h 74% 0in /  0.0mm 0 W/m2
04:01 48.7 °F /  9.3 °C 40.8 °F /  4.9 °C 29.9in /  1013.2hPa Calm   2mph /  3.2km/h 74% 0in /  0.0mm 0 W/m2
04:06 48.6 °F /  9.2 °C 40.6 °F /  4.8 °C 29.9in /  1013.2hPa West 0.9mph /  1.4km/h 3mph /  4.8km/h 74% 0in /  0.0mm 0 W/m2
04:11 48.6 °F /  9.2 °C 40.6 °F /  4.8 °C 29.9in /  1013.2hPa Calm   1mph /  1.6km/h 74% 0in /  0.0mm 0 W/m2
04:16 48.4 °F /  9.1 °C 40.5 °F /  4.7 °C 29.9in /  1013.2hPa Calm   1mph /  1.6km/h 74% 0in /  0.0mm 0 W/m2
04:21 47.8 °F /  8.8 °C 40.3 °F /  4.6 °C 29.9in /  1012.9hPa West 0.9mph /  1.4km/h 1mph /  1.6km/h 75% 0in /  0.0mm 0 W/m2
04:26 47.7 °F /  8.7 °C 40.1 °F /  4.5 °C 29.9in /  1012.9hPa Calm   2mph /  3.2km/h 75% 0in /  0.0mm 0 W/m2
04:31 47.5 °F /  8.6 °C 39.9 °F /  4.4 °C 29.9in /  1013.2hPa Calm   1mph /  1.6km/h 75% 0in /  0.0mm 0 W/m2
04:36 47.1 °F /  8.4 °C 39.6 °F /  4.2 °C 29.9in /  1013.2hPa West 0.9mph /  1.4km/h 3mph /  4.8km/h 75% 0in /  0.0mm 0 W/m2
04:41 47.1 °F /  8.4 °C 39.6 °F /  4.2 °C 29.9in /  1012.9hPa West 0.9mph /  1.4km/h 2mph /  3.2km/h 75% 0in /  0.0mm 0 W/m2
04:46 47.1 °F /  8.4 °C 39.6 °F /  4.2 °C 29.9in /  1012.9hPa West 3mph /  4.8km/h 3mph /  4.8km/h 75% 0in /  0.0mm 0 W/m2
04:51 46.9 °F /  8.3 °C 39.4 °F /  4.1 °C 29.9in /  1012.9hPa Calm   1mph /  1.6km/h 75% 0in /  0.0mm 0 W/m2
04:56 46.8 °F /  8.2 °C 39.2 °F /  4 °C 29.9in /  1012.9hPa Calm   2mph /  3.2km/h 75% 0in /  0.0mm 0 W/m2
05:01 46.8 °F /  8.2 °C 38.8 °F /  3.8 °C 29.9in /  1012.9hPa West 2mph /  3.2km/h 2mph /  3.2km/h 74% 0in /  0.0mm 0 W/m2
05:06 46.8 °F /  8.2 °C 39.2 °F /  4 °C 29.9in /  1012.9hPa SSE 0.9mph /  1.4km/h 2mph /  3.2km/h 75% 0in /  0.0mm 0 W/m2
05:11 46.6 °F /  8.1 °C 38.7 °F /  3.7 °C 29.9in /  1012.9hPa Calm   1mph /  1.6km/h 74% 0in /  0.0mm 0 W/m2
05:16 46.6 °F /  8.1 °C 38.7 °F /  3.7 °C 29.9in /  1012.9hPa South 0.9mph /  1.4km/h 1mph /  1.6km/h 74% 0in /  0.0mm 0 W/m2
05:21 46.4 °F /  8 °C 38.3 °F /  3.5 °C 29.9in /  1012.9hPa West 0.9mph /  1.4km/h 3mph /  4.8km/h 73% 0in /  0.0mm 0 W/m2
05:27 46.6 °F /  8.1 °C 38.1 °F /  3.4 °C 29.9in /  1012.9hPa ESE 0.9mph /  1.4km/h 4mph /  6.4km/h 72% 0in /  0.0mm 0 W/m2
05:32 46.8 °F /  8.2 °C 38.3 °F /  3.5 °C 29.9in /  1012.9hPa SSE 0.9mph /  1.4km/h 2mph /  3.2km/h 72% 0in /  0.0mm 0 W/m2
05:37 46.8 °F /  8.2 °C 37.9 °F /  3.3 °C 29.9in /  1012.9hPa Calm   4mph /  6.4km/h 71% 0in /  0.0mm 0 W/m2
05:42 46.8 °F /  8.2 °C 37.6 °F /  3.1 °C 29.9in /  1012.9hPa Calm   3mph /  4.8km/h 70% 0in /  0.0mm 0 W/m2
05:47 46.8 °F /  8.2 °C 37.6 °F /  3.1 °C 29.9in /  1012.9hPa Calm   4mph /  6.4km/h 70% 0in /  0.0mm 0 W/m2
05:52 46.6 °F /  8.1 °C 37.8 °F /  3.2 °C 29.9in /  1012.9hPa Calm   2mph /  3.2km/h 71% 0in /  0.0mm 0 W/m2
05:57 46.6 °F /  8.1 °C 37.4 °F /  3 °C 29.9in /  1012.9hPa WNW 0.9mph /  1.4km/h 2mph /  3.2km/h 70% 0in /  0.0mm 0 W/m2
06:02 46.4 °F /  8 °C 37.2 °F /  2.9 °C 29.9in /  1012.9hPa South 0.9mph /  1.4km/h 2mph /  3.2km/h 70% 0in /  0.0mm 0 W/m2
06:07 46.6 °F /  8.1 °C 37 °F /  2.8 °C 29.9in /  1012.9hPa Calm   2mph /  3.2km/h 69% 0in /  0.0mm 0 W/m2
06:12 46.6 °F /  8.1 °C 37 °F /  2.8 °C 29.9in /  1012.9hPa Calm   2mph /  3.2km/h 69% 0in /  0.0mm 0 W/m2
06:17 46.6 °F /  8.1 °C 37 °F /  2.8 °C 29.9in /  1012.9hPa NW 0.9mph /  1.4km/h 1mph /  1.6km/h 69% 0in /  0.0mm 0 W/m2
06:22 46.6 °F /  8.1 °C 36.5 °F /  2.5 °C 29.9in /  1012.9hPa Calm   1mph /  1.6km/h 68% 0in /  0.0mm 0 W/m2
06:27 46.6 °F /  8.1 °C 36.5 °F /  2.5 °C 29.9in /  1012.9hPa WNW 0.9mph /  1.4km/h 2mph /  3.2km/h 68% 0in /  0.0mm 0 W/m2
06:32 46.4 °F /  8 °C 36.9 °F /  2.7 °C 29.9in /  1012.9hPa Calm   1mph /  1.6km/h 69% 0in /  0.0mm 0 W/m2
06:37 46.2 °F /  7.9 °C 37 °F /  2.8 °C 29.9in /  1012.9hPa Calm   1mph /  1.6km/h 70% 0in /  0.0mm 5 W/m2
06:42 46 °F /  7.8 °C 36.5 °F /  2.5 °C 29.9in /  1012.9hPa Calm   1mph /  1.6km/h 69% 0in /  0.0mm 7 W/m2
06:47 46.2 °F /  7.9 °C 36.3 °F /  2.4 °C 29.9in /  1012.9hPa Calm   3mph /  4.8km/h 68% 0in /  0.0mm 11 W/m2
06:52 46.2 °F /  7.9 °C 36.3 °F /  2.4 °C 29.9in /  1012.9hPa NW 0.9mph /  1.4km/h 1mph /  1.6km/h 68% 0in /  0.0mm 12 W/m2
06:57 46.2 °F /  7.9 °C 37 °F /  2.8 °C 29.9in /  1012.9hPa Calm   1mph /  1.6km/h 70% 0in /  0.0mm 16 W/m2
07:02 46 °F /  7.8 °C 36.9 °F /  2.7 °C 29.9in /  1012.9hPa Calm   1mph /  1.6km/h 70% 0in /  0.0mm 18 W/m2
07:07 45.9 °F /  7.7 °C 36.3 °F /  2.4 °C 29.9in /  1012.9hPa Calm   1mph /  1.6km/h 69% 0in /  0.0mm 19 W/m2
07:12 45.9 °F /  7.7 °C 36.3 °F /  2.4 °C 29.9in /  1012.9hPa North 2mph /  3.2km/h 2mph /  3.2km/h 69% 0in /  0.0mm 23 W/m2
07:17 46 °F /  7.8 °C 36.5 °F /  2.5 °C 29.9in /  1012.9hPa North 0.9mph /  1.4km/h 1mph /  1.6km/h 69% 0in /  0.0mm 25 W/m2
07:22 46.2 °F /  7.9 °C 36.3 °F /  2.4 °C 29.9in /  1012.9hPa Calm   1mph /  1.6km/h 68% 0in /  0.0mm 26 W/m2
07:27 46.2 °F /  7.9 °C 36.7 °F /  2.6 °C 29.9in /  1013.2hPa SSE 2mph /  3.2km/h 2mph /  3.2km/h 69% 0in /  0.0mm 28 W/m2
07:32 46.4 °F /  8 °C 36.5 °F /  2.5 °C 29.9in /  1013.2hPa NNW 0.9mph /  1.4km/h 1mph /  1.6km/h 68% 0in /  0.0mm 30 W/m2
07:37 46.6 °F /  8.1 °C 36.5 °F /  2.5 °C 29.9in /  1013.2hPa Calm   1mph /  1.6km/h 68% 0in /  0.0mm 33 W/m2
07:42 46.8 °F /  8.2 °C 36.7 °F /  2.6 °C 29.9in /  1013.2hPa NNE 0.9mph /  1.4km/h 2mph /  3.2km/h 68% 0in /  0.0mm 39 W/m2
07:47 46.9 °F /  8.3 °C 36.5 °F /  2.5 °C 29.9in /  1013.2hPa East 2mph /  3.2km/h 5mph /  8km/h 67% 0in /  0.0mm 47 W/m2
07:52 47.5 °F /  8.6 °C 36.7 °F /  2.6 °C 29.9in /  1013.2hPa East 0.9mph /  1.4km/h 6mph /  9.7km/h 66% 0in /  0.0mm 118 W/m2
07:57 48 °F /  8.9 °C 37.2 °F /  2.9 °C 29.9in /  1013.2hPa SE 2.9mph /  4.7km/h 9mph /  14.5km/h 66% 0in /  0.0mm 142 W/m2
08:03 48.4 °F /  9.1 °C 37.2 °F /  2.9 °C 29.9in /  1013.2hPa ENE 2.9mph /  4.7km/h 4mph /  6.4km/h 65% 0in /  0.0mm 132 W/m2
08:08 48.9 °F /  9.4 °C 37.2 °F /  2.9 °C 29.9in /  1013.2hPa ENE 4mph /  6.4km/h 9mph /  14.5km/h 64% 0in /  0.0mm 185 W/m2
08:13 49.3 °F /  9.6 °C 37.2 °F /  2.9 °C 29.9in /  1013.2hPa East 2mph /  3.2km/h 7mph /  11.3km/h 63% 0in /  0.0mm 197 W/m2
08:18 49.6 °F /  9.8 °C 37.6 °F /  3.1 °C 29.9in /  1013.2hPa East 4mph /  6.4km/h 7mph /  11.3km/h 63% 0in /  0.0mm 213 W/m2
08:23 49.8 °F /  9.9 °C 37.8 °F /  3.2 °C 29.9in /  1013.2hPa NE 0.9mph /  1.4km/h 6mph /  9.7km/h 63% 0in /  0.0mm 225 W/m2
08:28 50.4 °F /  10.2 °C 38.3 °F /  3.5 °C 29.9in /  1013.2hPa SSW 0.9mph /  1.4km/h 5mph /  8km/h 63% 0in /  0.0mm 236 W/m2
08:33 50.7 °F /  10.4 °C 38.1 °F /  3.4 °C 29.9in /  1013.2hPa East 2.9mph /  4.7km/h 6mph /  9.7km/h 62% 0in /  0.0mm 251 W/m2
08:38 51.1 °F /  10.6 °C 38.5 °F /  3.6 °C 29.9in /  1013.2hPa SSE 4mph /  6.4km/h 6mph /  9.7km/h 62% 0in /  0.0mm 264 W/m2
08:43 51.3 °F /  10.7 °C 38.7 °F /  3.7 °C 29.9in /  1013.2hPa NE 2.9mph /  4.7km/h 11mph /  17.7km/h 62% 0in /  0.0mm 274 W/m2
08:48 51.3 °F /  10.7 °C 38.3 °F /  3.5 °C 29.9in /  1013.2hPa NE 2.9mph /  4.7km/h 8mph /  12.9km/h 61% 0in /  0.0mm 290 W/m2
08:53 51.4 °F /  10.8 °C 38.5 °F /  3.6 °C 29.9in /  1013.2hPa WNW 0.9mph /  1.4km/h 11mph /  17.7km/h 61% 0in /  0.0mm 302 W/m2
08:58 51.6 °F /  10.9 °C 39 °F /  3.9 °C 29.9in /  1013.2hPa ESE 4mph /  6.4km/h 9mph /  14.5km/h 62% 0in /  0.0mm 313 W/m2
09:03 52 °F /  11.1 °C 39 °F /  3.9 °C 29.9in /  1013.2hPa East 2mph /  3.2km/h 7mph /  11.3km/h 61% 0in /  0.0mm 325 W/m2
09:08 52.3 °F /  11.3 °C 39.4 °F /  4.1 °C 29.9in /  1013.2hPa East 2.9mph /  4.7km/h 4mph /  6.4km/h 61% 0in /  0.0mm 339 W/m2
09:13 52.9 °F /  11.6 °C 39.7 °F /  4.3 °C 29.9in /  1012.9hPa ENE 4.9mph /  7.9km/h 5mph /  8km/h 61% 0in /  0.0mm 352 W/m2
09:18 53.2 °F /  11.8 °C 39.2 °F /  4 °C 29.9in /  1012.9hPa East 2.9mph /  4.7km/h 7mph /  11.3km/h 59% 0in /  0.0mm 366 W/m2
09:23 53.6 °F /  12 °C 39.6 °F /  4.2 °C 29.9in /  1012.9hPa ENE 2mph /  3.2km/h 2mph /  3.2km/h 59% 0in /  0.0mm 378 W/m2
09:28 54.1 °F /  12.3 °C 39.2 °F /  4 °C 29.9in /  1012.9hPa NE 11mph /  17.7km/h 11mph /  17.7km/h 57% 0in /  0.0mm 387 W/m2
09:33 54.3 °F /  12.4 °C 39.4 °F /  4.1 °C 29.9in /  1012.9hPa ENE 8.1mph /  13km/h 9mph /  14.5km/h 57% 0in /  0.0mm 403 W/m2
09:38 54.7 °F /  12.6 °C 39.7 °F /  4.3 °C 29.9in /  1012.9hPa ENE 2mph /  3.2km/h 8mph /  12.9km/h 57% 0in /  0.0mm 415 W/m2
09:43 55.2 °F /  12.9 °C 39.7 °F /  4.3 °C 29.9in /  1012.9hPa SE 0.9mph /  1.4km/h 9mph /  14.5km/h 56% 0in /  0.0mm 425 W/m2
09:48 55.8 °F /  13.2 °C 39.4 °F /  4.1 °C 29.9in /  1012.9hPa ENE 2.9mph /  4.7km/h 10mph /  16.1km/h 54% 0in /  0.0mm 350 W/m2
09:53 56.1 °F /  13.4 °C 40.1 °F /  4.5 °C 29.9in /  1012.9hPa SW 2mph /  3.2km/h 12mph /  19.3km/h 55% 0in /  0.0mm 60 W/m2
09:58 56.7 °F /  13.7 °C 39.7 °F /  4.3 °C 29.9in /  1012.5hPa East 2.9mph /  4.7km/h 7mph /  11.3km/h 53% 0in /  0.0mm 462 W/m2
10:04 57 °F /  13.9 °C 39.6 °F /  4.2 °C 29.9in /  1012.9hPa SSE 4mph /  6.4km/h 5mph /  8km/h 52% 0in /  0.0mm 473 W/m2
10:09 57 °F /  13.9 °C 39.6 °F /  4.2 °C 29.9in /  1012.5hPa ESE 11mph /  17.7km/h 11mph /  17.7km/h 52% 0in /  0.0mm 489 W/m2
10:14 57.6 °F /  14.2 °C 40.1 °F /  4.5 °C 29.9in /  1012.5hPa NE 4.9mph /  7.9km/h 11mph /  17.7km/h 52% 0in /  0.0mm 499 W/m2
10:19 57.7 °F /  14.3 °C 40.3 °F /  4.6 °C 29.9in /  1012.5hPa NNE 6.9mph /  11.1km/h 10mph /  16.1km/h 52% 0in /  0.0mm 512 W/m2
10:24 58.1 °F /  14.5 °C 39.6 °F /  4.2 °C 29.9in /  1012.5hPa East 2.9mph /  4.7km/h 6mph /  9.7km/h 50% 0in /  0.0mm 520 W/m2
10:29 58.6 °F /  14.8 °C 40.1 °F /  4.5 °C 29.9in /  1012.5hPa SSE 6mph /  9.7km/h 10mph /  16.1km/h 50% 0in /  0.0mm 529 W/m2
10:34 58.8 °F /  14.9 °C 39.2 °F /  4 °C 29.9in /  1012.5hPa NNE 4.9mph /  7.9km/h 13mph /  20.9km/h 48% 0in /  0.0mm 543 W/m2
10:39 58.8 °F /  14.9 °C 39.2 °F /  4 °C 29.9in /  1012.5hPa NNE 0.9mph /  1.4km/h 9mph /  14.5km/h 48% 0in /  0.0mm 552 W/m2
10:44 58.8 °F /  14.9 °C 39.7 °F /  4.3 °C 29.9in /  1012.5hPa NNE 6mph /  9.7km/h 13mph /  20.9km/h 49% 0in /  0.0mm 563 W/m2
10:49 59.4 °F /  15.2 °C 40.3 °F /  4.6 °C 29.9in /  1012.5hPa NNW 0.9mph /  1.4km/h 9mph /  14.5km/h 49% 0in /  0.0mm 575 W/m2
10:54 59.5 °F /  15.3 °C 39.4 °F /  4.1 °C 29.9in /  1012.5hPa South 4mph /  6.4km/h 13mph /  20.9km/h 47% 0in /  0.0mm 582 W/m2
10:59 59.5 °F /  15.3 °C 39.9 °F /  4.4 °C 29.9in /  1012.5hPa NE 4.9mph /  7.9km/h 11mph /  17.7km/h 48% 0in /  0.0mm 592 W/m2
11:04 59.7 °F /  15.4 °C 39.4 °F /  4.1 °C 29.9in /  1012.5hPa NE 4.9mph /  7.9km/h 15mph /  24.1km/h 47% 0in /  0.0mm 601 W/m2
11:09 60.3 °F /  15.7 °C 39.4 °F /  4.1 °C 29.9in /  1012.5hPa North 0.9mph /  1.4km/h 11mph /  17.7km/h 46% 0in /  0.0mm 610 W/m2
11:14 60.6 °F /  15.9 °C 39.7 °F /  4.3 °C 29.9in /  1012.5hPa SSE 4mph /  6.4km/h 15mph /  24.1km/h 46% 0in /  0.0mm 621 W/m2
11:19 60.8 °F /  16 °C 39.9 °F /  4.4 °C 29.9in /  1012.5hPa East 6.9mph /  11.1km/h 11mph /  17.7km/h 46% 0in /  0.0mm 628 W/m2
11:24 60.6 °F /  15.9 °C 39.2 °F /  4 °C 29.9in /  1012.5hPa South 0.9mph /  1.4km/h 13mph /  20.9km/h 45% 0in /  0.0mm 635 W/m2
11:29 61 °F /  16.1 °C 39.6 °F /  4.2 °C 29.9in /  1012.5hPa ENE 4mph /  6.4km/h 11mph /  17.7km/h 45% 0in /  0.0mm 643 W/m2
11:34 61.2 °F /  16.2 °C 39 °F /  3.9 °C 29.9in /  1012.5hPa NE 12.1mph /  19.5km/h 12mph /  19.3km/h 44% 0in /  0.0mm 650 W/m2
11:39 61.3 °F /  16.3 °C 39.2 °F /  4 °C 29.9in /  1012.5hPa SSE 2.9mph /  4.7km/h 9mph /  14.5km/h 44% 0in /  0.0mm 661 W/m2
11:44 61.9 °F /  16.6 °C 40.3 °F /  4.6 °C 29.9in /  1012.5hPa ENE 8.9mph /  14.3km/h 15mph /  24.1km/h 45% 0in /  0.0mm 666 W/m2
11:49 62.1 °F /  16.7 °C 39.9 °F /  4.4 °C 29.9in /  1012.5hPa ESE 4mph /  6.4km/h 9mph /  14.5km/h 44% 0in /  0.0mm 671 W/m2
11:54 61.9 °F /  16.6 °C 39.2 °F /  4 °C 29.9in /  1012.5hPa SSE 4.9mph /  7.9km/h 10mph /  16.1km/h 43% 0in /  0.0mm 679 W/m2
11:59 62.1 °F /  16.7 °C 39.9 °F /  4.4 °C 29.9in /  1012.5hPa ESE 0.9mph /  1.4km/h 6mph /  9.7km/h 44% 0in /  0.0mm 687 W/m2
12:04 62.2 °F /  16.8 °C 40.1 °F /  4.5 °C 29.9in /  1012.5hPa SE 4.9mph /  7.9km/h 8mph /  12.9km/h 44% 0in /  0.0mm 689 W/m2
12:09 62.1 °F /  16.7 °C 38.7 °F /  3.7 °C 29.9in /  1012.2hPa NE 14.1mph /  22.7km/h 14mph /  22.5km/h 42% 0in /  0.0mm 694 W/m2
12:14 62.1 °F /  16.7 °C 38.7 °F /  3.7 °C 29.9in /  1012.2hPa East 2mph /  3.2km/h 8mph /  12.9km/h 42% 0in /  0.0mm 700 W/m2
12:19 62.8 °F /  17.1 °C 39.4 °F /  4.1 °C 29.9in /  1012.2hPa North 2mph /  3.2km/h 9mph /  14.5km/h 42% 0in /  0.0mm 708 W/m2
12:24 63 °F /  17.2 °C 39.6 °F /  4.2 °C 29.9in /  1012.2hPa NE 4mph /  6.4km/h 12mph /  19.3km/h 42% 0in /  0.0mm 710 W/m2
12:29 63.1 °F /  17.3 °C 39.7 °F /  4.3 °C 29.9in /  1012.2hPa East 2.9mph /  4.7km/h 13mph /  20.9km/h 42% 0in /  0.0mm 715 W/m2
12:34 63.3 °F /  17.4 °C 39.9 °F /  4.4 °C 29.9in /  1012.2hPa SSW 4.9mph /  7.9km/h 12mph /  19.3km/h 42% 0in /  0.0mm 717 W/m2
12:39 63.5 °F /  17.5 °C 39.4 °F /  4.1 °C 29.9in /  1011.9hPa East 8.9mph /  14.3km/h 9mph /  14.5km/h 41% 0in /  0.0mm 719 W/m2
12:44 63.5 °F /  17.5 °C 39.9 °F /  4.4 °C 29.9in /  1011.9hPa ESE 8.1mph /  13km/h 10mph /  16.1km/h 42% 0in /  0.0mm 726 W/m2
12:49 63.5 °F /  17.5 °C 39.4 °F /  4.1 °C 29.9in /  1011.9hPa NE 16.1mph /  25.9km/h 16mph /  25.7km/h 41% 0in /  0.0mm 728 W/m2
12:54 63.9 °F /  17.7 °C 40.3 °F /  4.6 °C 29.9in /  1011.9hPa South 2mph /  3.2km/h 9mph /  14.5km/h 42% 0in /  0.0mm 729 W/m2
12:59 64.2 °F /  17.9 °C 41.2 °F /  5.1 °C 29.9in /  1011.9hPa ESE 8.9mph /  14.3km/h 16mph /  25.7km/h 43% 0in /  0.0mm 733 W/m2
13:04 64.4 °F /  18 °C 40.1 °F /  4.5 °C 29.9in /  1011.9hPa East 4mph /  6.4km/h 8mph /  12.9km/h 41% 0in /  0.0mm 735 W/m2
13:09 64.4 °F /  18 °C 40.8 °F /  4.9 °C 29.9in /  1011.9hPa SE 2mph /  3.2km/h 15mph /  24.1km/h 42% 0in /  0.0mm 738 W/m2
13:14 64.6 °F /  18.1 °C 40.3 °F /  4.6 °C 29.9in /  1011.9hPa ENE 4mph /  6.4km/h 11mph /  17.7km/h 41% 0in /  0.0mm 742 W/m2
13:19 64.8 °F /  18.2 °C 41.2 °F /  5.1 °C 29.9in /  1011.9hPa SE 4.9mph /  7.9km/h 10mph /  16.1km/h 42% 0in /  0.0mm 740 W/m2
13:24 64.9 °F /  18.3 °C 40.1 °F /  4.5 °C 29.9in /  1011.5hPa East 2.9mph /  4.7km/h 8mph /  12.9km/h 40% 0in /  0.0mm 742 W/m2
13:29 65.1 °F /  18.4 °C 40.3 °F /  4.6 °C 29.9in /  1011.5hPa East 2.9mph /  4.7km/h 11mph /  17.7km/h 40% 0in /  0.0mm 744 W/m2
13:34 65.1 °F /  18.4 °C 40.3 °F /  4.6 °C 29.9in /  1011.5hPa ENE 4.9mph /  7.9km/h 11mph /  17.7km/h 40% 0in /  0.0mm 742 W/m2
13:39 64.9 °F /  18.3 °C 40.1 °F /  4.5 °C 29.9in /  1011.5hPa East 4mph /  6.4km/h 9mph /  14.5km/h 40% 0in /  0.0mm 744 W/m2
13:44 64.9 °F /  18.3 °C 39.4 °F /  4.1 °C 29.9in /  1011.5hPa SE 10.1mph /  16.3km/h 13mph /  20.9km/h 39% 0in /  0.0mm 737 W/m2
13:49 64.8 °F /  18.2 °C 39.9 °F /  4.4 °C 29.9in /  1011.5hPa NE 11mph /  17.7km/h 11mph /  17.7km/h 40% 0in /  0.0mm 740 W/m2
13:54 64.9 °F /  18.3 °C 38.7 °F /  3.7 °C 29.9in /  1011.5hPa ENE 4.9mph /  7.9km/h 10mph /  16.1km/h 38% 0in /  0.0mm 735 W/m2
14:00 64.9 °F /  18.3 °C 39.4 °F /  4.1 °C 29.9in /  1011.5hPa SE 2.9mph /  4.7km/h 15mph /  24.1km/h 39% 0in /  0.0mm 737 W/m2
14:05 65.3 °F /  18.5 °C 39.7 °F /  4.3 °C 29.9in /  1011.5hPa East 6.9mph /  11.1km/h 12mph /  19.3km/h 39% 0in /  0.0mm 733 W/m2
14:10 65.3 °F /  18.5 °C 39.7 °F /  4.3 °C 29.9in /  1011.2hPa ESE 6mph /  9.7km/h 16mph /  25.7km/h 39% 0in /  0.0mm 731 W/m2
14:15 65.7 °F /  18.7 °C 39.4 °F /  4.1 °C 29.9in /  1011.5hPa ESE 12.1mph /  19.5km/h 12mph /  19.3km/h 38% 0in /  0.0mm 729 W/m2
14:20 65.5 °F /  18.6 °C 38.5 °F /  3.6 °C 29.9in /  1011.2hPa East 4mph /  6.4km/h 16mph /  25.7km/h 37% 0in /  0.0mm 726 W/m2
14:25 65.8 °F /  18.8 °C 39.6 °F /  4.2 °C 29.9in /  1011.2hPa SE 4mph /  6.4km/h 10mph /  16.1km/h 38% 0in /  0.0mm 726 W/m2
14:30 66 °F /  18.9 °C 39 °F /  3.9 °C 29.9in /  1011.2hPa East 12.1mph /  19.5km/h 15mph /  24.1km/h 37% 0in /  0.0mm 717 W/m2
14:35 65.8 °F /  18.8 °C 38.8 °F /  3.8 °C 29.9in /  1011.2hPa NNE 8.9mph /  14.3km/h 9mph /  14.5km/h 37% 0in /  0.0mm 719 W/m2
14:40 65.8 °F /  18.8 °C 38.8 °F /  3.8 °C 29.9in /  1011.2hPa ESE 4mph /  6.4km/h 15mph /  24.1km/h 37% 0in /  0.0mm 714 W/m2
14:45 65.8 °F /  18.8 °C 38.8 °F /  3.8 °C 29.9in /  1011.2hPa ESE 6.9mph /  11.1km/h 10mph /  16.1km/h 37% 0in /  0.0mm 707 W/m2
14:50 66.2 °F /  19 °C 38.5 °F /  3.6 °C 29.9in /  1010.8hPa East 8.1mph /  13km/h 16mph /  25.7km/h 36% 0in /  0.0mm 698 W/m2
14:55 66.2 °F /  19 °C 39.2 °F /  4 °C 29.9in /  1010.8hPa ESE 4mph /  6.4km/h 9mph /  14.5km/h 37% 0in /  0.0mm 696 W/m2
15:00 66.6 °F /  19.2 °C 38.8 °F /  3.8 °C 29.9in /  1010.8hPa East 4mph /  6.4km/h 12mph /  19.3km/h 36% 0in /  0.0mm 687 W/m2
15:05 66.7 °F /  19.3 °C 38.3 °F /  3.5 °C 29.9in /  1010.8hPa SE 10.1mph /  16.3km/h 13mph /  20.9km/h 35% 0in /  0.0mm 686 W/m2
15:10 66.7 °F /  19.3 °C 38.3 °F /  3.5 °C 29.9in /  1010.8hPa SSW 0.9mph /  1.4km/h 17mph /  27.4km/h 35% 0in /  0.0mm 679 W/m2
15:15 66.6 °F /  19.2 °C 38.1 °F /  3.4 °C 29.9in /  1010.8hPa NE 6mph /  9.7km/h 9mph /  14.5km/h 35% 0in /  0.0mm 671 W/m2
15:20 66.7 °F /  19.3 °C 38.3 °F /  3.5 °C 29.9in /  1010.8hPa ESE 4mph /  6.4km/h 16mph /  25.7km/h 35% 0in /  0.0mm 668 W/m2
15:25 67.1 °F /  19.5 °C 38.5 °F /  3.6 °C 29.8in /  1010.5hPa NNE 2mph /  3.2km/h 9mph /  14.5km/h 35% 0in /  0.0mm 661 W/m2
15:30 67.5 °F /  19.7 °C 38.8 °F /  3.8 °C 29.9in /  1010.8hPa ESE 8.9mph /  14.3km/h 13mph /  20.9km/h 35% 0in /  0.0mm 649 W/m2
15:35 67.6 °F /  19.8 °C 38.3 °F /  3.5 °C 29.8in /  1010.5hPa NE 4.9mph /  7.9km/h 18mph /  29km/h 34% 0in /  0.0mm 642 W/m2
15:40 67.8 °F /  19.9 °C 38.5 °F /  3.6 °C 29.8in /  1010.5hPa ENE 6mph /  9.7km/h 7mph /  11.3km/h 34% 0in /  0.0mm 640 W/m2
15:45 68 °F /  20 °C 39.4 °F /  4.1 °C 29.8in /  1010.5hPa North 2mph /  3.2km/h 18mph /  29km/h 35% 0in /  0.0mm 631 W/m2
15:50 68 °F /  20 °C 38.7 °F /  3.7 °C 29.8in /  1010.5hPa ENE 4.9mph /  7.9km/h 7mph /  11.3km/h 34% 0in /  0.0mm 621 W/m2
15:55 67.8 °F /  19.9 °C 38.5 °F /  3.6 °C 29.8in /  1010.5hPa ESE 4mph /  6.4km/h 13mph /  20.9km/h 34% 0in /  0.0mm 610 W/m2
16:00 67.6 °F /  19.8 °C 37.6 °F /  3.1 °C 29.8in /  1010.5hPa East 6.9mph /  11.1km/h 18mph /  29km/h 33% 0in /  0.0mm 603 W/m2
16:05 67.5 °F /  19.7 °C 37.4 °F /  3 °C 29.8in /  1010.5hPa ESE 4mph /  6.4km/h 8mph /  12.9km/h 33% 0in /  0.0mm 594 W/m2
16:10 67.6 °F /  19.8 °C 38.3 °F /  3.5 °C 29.8in /  1010.2hPa East 10.1mph /  16.3km/h 12mph /  19.3km/h 34% 0in /  0.0mm 584 W/m2
16:15 67.5 °F /  19.7 °C 38.1 °F /  3.4 °C 29.8in /  1010.2hPa ESE 4mph /  6.4km/h 8mph /  12.9km/h 34% 0in /  0.0mm 573 W/m2
16:20 67.6 °F /  19.8 °C 38.3 °F /  3.5 °C 29.8in /  1010.2hPa SE 6.9mph /  11.1km/h 7mph /  11.3km/h 34% 0in /  0.0mm 563 W/m2
16:25 67.8 °F /  19.9 °C 38.5 °F /  3.6 °C 29.8in /  1010.2hPa East 4mph /  6.4km/h 11mph /  17.7km/h 34% 0in /  0.0mm 554 W/m2
16:30 68 °F /  20 °C 38.7 °F /  3.7 °C 29.8in /  1010.2hPa ESE 2.9mph /  4.7km/h 9mph /  14.5km/h 34% 0in /  0.0mm 541 W/m2
16:35 67.8 °F /  19.9 °C 37.6 °F /  3.1 °C 29.8in /  1010.2hPa NE 4.9mph /  7.9km/h 15mph /  24.1km/h 33% 0in /  0.0mm 533 W/m2
16:40 67.5 °F /  19.7 °C 38.1 °F /  3.4 °C 29.8in /  1010.2hPa ESE 4mph /  6.4km/h 11mph /  17.7km/h 34% 0in /  0.0mm 522 W/m2
16:45 67.6 °F /  19.8 °C 38.3 °F /  3.5 °C 29.8in /  1010.2hPa NE 10.1mph /  16.3km/h 11mph /  17.7km/h 34% 0in /  0.0mm 512 W/m2
16:50 67.6 °F /  19.8 °C 38.3 °F /  3.5 °C 29.8in /  1010.2hPa NE 2.9mph /  4.7km/h 15mph /  24.1km/h 34% 0in /  0.0mm 499 W/m2
16:55 67.6 °F /  19.8 °C 39 °F /  3.9 °C 29.8in /  1010.2hPa East 2mph /  3.2km/h 9mph /  14.5km/h 35% 0in /  0.0mm 487 W/m2
17:00 67.6 °F /  19.8 °C 38.3 °F /  3.5 °C 29.8in /  1010.2hPa ENE 2.9mph /  4.7km/h 14mph /  22.5km/h 34% 0in /  0.0mm 476 W/m2
17:05 67.5 °F /  19.7 °C 38.1 °F /  3.4 °C 29.8in /  1010.2hPa SE 4.9mph /  7.9km/h 13mph /  20.9km/h 34% 0in /  0.0mm 464 W/m2
17:10 67.1 °F /  19.5 °C 37.8 °F /  3.2 °C 29.8in /  1010.2hPa ENE 4.9mph /  7.9km/h 9mph /  14.5km/h 34% 0in /  0.0mm 455 W/m2
17:15 67.1 °F /  19.5 °C 37.8 °F /  3.2 °C 29.8in /  1010.2hPa ESE 2.9mph /  4.7km/h 11mph /  17.7km/h 34% 0in /  0.0mm 443 W/m2
17:20 67.1 °F /  19.5 °C 37 °F /  2.8 °C 29.8in /  1009.8hPa ENE 8.1mph /  13km/h 12mph /  19.3km/h 33% 0in /  0.0mm 427 W/m2
17:25 67.3 °F /  19.6 °C 37.9 °F /  3.3 °C 29.8in /  1010.2hPa East 2mph /  3.2km/h 8mph /  12.9km/h 34% 0in /  0.0mm 418 W/m2
17:30 67.6 °F /  19.8 °C 37.6 °F /  3.1 °C 29.8in /  1010.2hPa East 8.1mph /  13km/h 9mph /  14.5km/h 33% 0in /  0.0mm 406 W/m2
17:35 67.6 °F /  19.8 °C 37.6 °F /  3.1 °C 29.8in /  1009.8hPa ENE 4.9mph /  7.9km/h 11mph /  17.7km/h 33% 0in /  0.0mm 390 W/m2
17:40 67.6 °F /  19.8 °C 38.3 °F /  3.5 °C 29.8in /  1009.8hPa East 2.9mph /  4.7km/h 16mph /  25.7km/h 34% 0in /  0.0mm 378 W/m2
17:45 67.6 °F /  19.8 °C 39.7 °F /  4.3 °C 29.8in /  1009.8hPa East 8.1mph /  13km/h 8mph /  12.9km/h 36% 0in /  0.0mm 364 W/m2
17:50 67.8 °F /  19.9 °C 38.5 °F /  3.6 °C 29.8in /  1009.8hPa SE 2.9mph /  4.7km/h 15mph /  24.1km/h 34% 0in /  0.0mm 355 W/m2
17:55 67.6 °F /  19.8 °C 37.6 °F /  3.1 °C 29.8in /  1009.8hPa NE 10.1mph /  16.3km/h 11mph /  17.7km/h 33% 0in /  0.0mm 341 W/m2
18:00 67.5 °F /  19.7 °C 38.1 °F /  3.4 °C 29.8in /  1010.2hPa East 11mph /  17.7km/h 14mph /  22.5km/h 34% 0in /  0.0mm 329 W/m2
18:05 67.3 °F /  19.6 °C 37.9 °F /  3.3 °C 29.8in /  1010.2hPa SE 12.1mph /  19.5km/h 12mph /  19.3km/h 34% 0in /  0.0mm 316 W/m2
18:10 67.1 °F /  19.5 °C 37.8 °F /  3.2 °C 29.8in /  1009.8hPa ENE 4mph /  6.4km/h 14mph /  22.5km/h 34% 0in /  0.0mm 304 W/m2
18:15 67.5 °F /  19.7 °C 38.8 °F /  3.8 °C 29.8in /  1009.8hPa SE 2mph /  3.2km/h 5mph /  8km/h 35% 0in /  0.0mm 290 W/m2
18:20 67.6 °F /  19.8 °C 38.3 °F /  3.5 °C 29.8in /  1009.8hPa ENE 2mph /  3.2km/h 8mph /  12.9km/h 34% 0in /  0.0mm 279 W/m2
18:25 67.5 °F /  19.7 °C 37.4 °F /  3 °C 29.8in /  1009.8hPa SE 2mph /  3.2km/h 13mph /  20.9km/h 33% 0in /  0.0mm 264 W/m2
18:30 67.3 °F /  19.6 °C 37.9 °F /  3.3 °C 29.8in /  1009.8hPa ESE 8.9mph /  14.3km/h 9mph /  14.5km/h 34% 0in /  0.0mm 253 W/m2
18:35 66.9 °F /  19.4 °C 37.6 °F /  3.1 °C 29.8in /  1010.2hPa East 13mph /  20.9km/h 13mph /  20.9km/h 34% 0in /  0.0mm 241 W/m2
18:40 66.7 °F /  19.3 °C 37.4 °F /  3 °C 29.8in /  1010.2hPa SSE 4.9mph /  7.9km/h 14mph /  22.5km/h 34% 0in /  0.0mm 227 W/m2
18:45 66.6 °F /  19.2 °C 37.4 °F /  3 °C 29.8in /  1010.2hPa ESE 2.9mph /  4.7km/h 6mph /  9.7km/h 34% 0in /  0.0mm 213 W/m2
18:50 66.6 °F /  19.2 °C 37.4 °F /  3 °C 29.8in /  1010.2hPa North 2.9mph /  4.7km/h 14mph /  22.5km/h 34% 0in /  0.0mm 199 W/m2
18:56 66.6 °F /  19.2 °C 38.1 °F /  3.4 °C 29.8in /  1010.2hPa ENE 2mph /  3.2km/h 5mph /  8km/h 35% 0in /  0.0mm 183 W/m2
19:01 66.4 °F /  19.1 °C 37.2 °F /  2.9 °C 29.8in /  1010.2hPa SE 8.9mph /  14.3km/h 13mph /  20.9km/h 34% 0in /  0.0mm 171 W/m2
19:06 66.2 °F /  19 °C 37 °F /  2.8 °C 29.8in /  1010.2hPa East 2.9mph /  4.7km/h 14mph /  22.5km/h 34% 0in /  0.0mm 158 W/m2
19:11 66 °F /  18.9 °C 36.9 °F /  2.7 °C 29.8in /  1010.2hPa ENE 8.9mph /  14.3km/h 11mph /  17.7km/h 34% 0in /  0.0mm 144 W/m2
19:16 66 °F /  18.9 °C 36.9 °F /  2.7 °C 29.8in /  1009.8hPa NE 13mph /  20.9km/h 13mph /  20.9km/h 34% 0in /  0.0mm 125 W/m2
19:21 66 °F /  18.9 °C 36.9 °F /  2.7 °C 29.8in /  1010.2hPa East 4mph /  6.4km/h 8mph /  12.9km/h 34% 0in /  0.0mm 113 W/m2
19:26 65.8 °F /  18.8 °C 36.7 °F /  2.6 °C 29.8in /  1010.2hPa East 4mph /  6.4km/h 11mph /  17.7km/h 34% 0in /  0.0mm 100 W/m2
19:31 65.7 °F /  18.7 °C 36.5 °F /  2.5 °C 29.8in /  1010.2hPa NNE 2mph /  3.2km/h 6mph /  9.7km/h 34% 0in /  0.0mm 88 W/m2
19:36 65.5 °F /  18.6 °C 36.3 °F /  2.4 °C 29.8in /  1010.2hPa NE 6.9mph /  11.1km/h 9mph /  14.5km/h 34% 0in /  0.0mm 74 W/m2
19:41 65.1 °F /  18.4 °C 36.1 °F /  2.3 °C 29.8in /  1010.2hPa East 2mph /  3.2km/h 7mph /  11.3km/h 34% 0in /  0.0mm 60 W/m2
19:46 64.9 °F /  18.3 °C 35.1 °F /  1.7 °C 29.8in /  1010.2hPa NE 11mph /  17.7km/h 13mph /  20.9km/h 33% 0in /  0.0mm 51 W/m2
19:51 64.8 °F /  18.2 °C 35.8 °F /  2.1 °C 29.8in /  1010.2hPa East 0.9mph /  1.4km/h 9mph /  14.5km/h 34% 0in /  0.0mm 46 W/m2
19:56 64.6 °F /  18.1 °C 36.3 °F /  2.4 °C 29.8in /  1010.2hPa ENE 2mph /  3.2km/h 11mph /  17.7km/h 35% 0in /  0.0mm 39 W/m2
20:01 64.6 °F /  18.1 °C 35.6 °F /  2 °C 29.8in /  1010.2hPa Calm   4mph /  6.4km/h 34% 0in /  0.0mm 25 W/m2
20:06 64.2 °F /  17.9 °C 35.2 °F /  1.8 °C 29.8in /  1010.2hPa ENE 2.9mph /  4.7km/h 8mph /  12.9km/h 34% 0in /  0.0mm 21 W/m2
20:11 64 °F /  17.8 °C 35.1 °F /  1.7 °C 29.8in /  1010.2hPa ENE 2mph /  3.2km/h 6mph /  9.7km/h 34% 0in /  0.0mm 18 W/m2
20:16 63.9 °F /  17.7 °C 34.9 °F /  1.6 °C 29.8in /  1010.5hPa NE 2.9mph /  4.7km/h 10mph /  16.1km/h 34% 0in /  0.0mm 14 W/m2
20:21 63.7 °F /  17.6 °C 34.7 °F /  1.5 °C 29.8in /  1010.5hPa ENE 4.9mph /  7.9km/h 8mph /  12.9km/h 34% 0in /  0.0mm 11 W/m2
20:26 63.5 °F /  17.5 °C 34.7 °F /  1.5 °C 29.8in /  1010.5hPa NNE 8.9mph /  14.3km/h 9mph /  14.5km/h 34% 0in /  0.0mm 7 W/m2
20:31 63.1 °F /  17.3 °C 34.3 °F /  1.3 °C 29.8in /  1010.5hPa ESE 0.9mph /  1.4km/h 3mph /  4.8km/h 34% 0in /  0.0mm 5 W/m2
20:36 63.1 °F /  17.3 °C 34.3 °F /  1.3 °C 29.9in /  1010.8hPa NE 2mph /  3.2km/h 7mph /  11.3km/h 34% 0in /  0.0mm 0 W/m2
20:41 63 °F /  17.2 °C 34.2 °F /  1.2 °C 29.9in /  1010.8hPa ENE 8.1mph /  13km/h 8mph /  12.9km/h 34% 0in /  0.0mm 0 W/m2
20:46 62.8 °F /  17.1 °C 34.7 °F /  1.5 °C 29.9in /  1010.8hPa NE 2.9mph /  4.7km/h 3mph /  4.8km/h 35% 0in /  0.0mm 0 W/m2
20:51 62.6 °F /  17 °C 34.5 °F /  1.4 °C 29.9in /  1010.8hPa ESE 2.9mph /  4.7km/h 6mph /  9.7km/h 35% 0in /  0.0mm 0 W/m2
20:56 62.4 °F /  16.9 °C 34.3 °F /  1.3 °C 29.9in /  1010.8hPa ENE 4.9mph /  7.9km/h 7mph /  11.3km/h 35% 0in /  0.0mm 0 W/m2
21:01 62.2 °F /  16.8 °C 34.2 °F /  1.2 °C 29.9in /  1010.8hPa SSE 0.9mph /  1.4km/h 11mph /  17.7km/h 35% 0in /  0.0mm 0 W/m2
21:06 62.1 °F /  16.7 °C 34.9 °F /  1.6 °C 29.9in /  1011.2hPa ESE 2.9mph /  4.7km/h 3mph /  4.8km/h 36% 0in /  0.0mm 0 W/m2
21:11 61.9 °F /  16.6 °C 34 °F /  1.1 °C 29.9in /  1011.2hPa East 2mph /  3.2km/h 8mph /  12.9km/h 35% 0in /  0.0mm 0 W/m2
21:16 61.9 °F /  16.6 °C 34.7 °F /  1.5 °C 29.9in /  1011.2hPa ENE 2.9mph /  4.7km/h 6mph /  9.7km/h 36% 0in /  0.0mm 0 W/m2
21:21 61.5 °F /  16.4 °C 34.3 °F /  1.3 °C 29.9in /  1011.2hPa ENE 4.9mph /  7.9km/h 5mph /  8km/h 36% 0in /  0.0mm 0 W/m2
21:26 61.3 °F /  16.3 °C 34.2 °F /  1.2 °C 29.9in /  1011.2hPa East 2.9mph /  4.7km/h 11mph /  17.7km/h 36% 0in /  0.0mm 0 W/m2
21:31 61.2 °F /  16.2 °C 34.7 °F /  1.5 °C 29.9in /  1011.2hPa NE 2mph /  3.2km/h 4mph /  6.4km/h 37% 0in /  0.0mm 0 W/m2
21:36 61 °F /  16.1 °C 34.5 °F /  1.4 °C 29.9in /  1011.2hPa East 6.9mph /  11.1km/h 11mph /  17.7km/h 37% 0in /  0.0mm 0 W/m2
21:41 61 °F /  16.1 °C 33.8 °F /  1 °C 29.9in /  1011.2hPa SE 2mph /  3.2km/h 7mph /  11.3km/h 36% 0in /  0.0mm 0 W/m2
21:46 60.8 °F /  16 °C 34.3 °F /  1.3 °C 29.9in /  1011.2hPa ENE 4mph /  6.4km/h 4mph /  6.4km/h 37% 0in /  0.0mm 0 W/m2
21:52 60.6 °F /  15.9 °C 34.2 °F /  1.2 °C 29.9in /  1011.2hPa ESE 2mph /  3.2km/h 3mph /  4.8km/h 37% 0in /  0.0mm 0 W/m2
21:57 60.4 °F /  15.8 °C 34 °F /  1.1 °C 29.9in /  1011.2hPa SE 0.9mph /  1.4km/h 3mph /  4.8km/h 37% 0in /  0.0mm 0 W/m2
22:02 60.3 °F /  15.7 °C 34.5 °F /  1.4 °C 29.9in /  1011.2hPa Calm   5mph /  8km/h 38% 0in /  0.0mm 0 W/m2
22:07 60.3 °F /  15.7 °C 34.5 °F /  1.4 °C 29.9in /  1011.2hPa Calm   4mph /  6.4km/h 38% 0in /  0.0mm 0 W/m2
22:12 60.1 °F /  15.6 °C 34.3 °F /  1.3 °C 29.9in /  1011.2hPa ESE 2mph /  3.2km/h 4mph /  6.4km/h 38% 0in /  0.0mm 0 W/m2
22:17 59.9 °F /  15.5 °C 34.9 °F /  1.6 °C 29.9in /  1011.2hPa ESE 2mph /  3.2km/h 6mph /  9.7km/h 39% 0in /  0.0mm 0 W/m2
22:22 59.7 °F /  15.4 °C 34 °F /  1.1 °C 29.9in /  1011.2hPa East 4mph /  6.4km/h 6mph /  9.7km/h 38% 0in /  0.0mm 0 W/m2
22:27 59.7 °F /  15.4 °C 34 °F /  1.1 °C 29.9in /  1011.2hPa Calm   2mph /  3.2km/h 38% 0in /  0.0mm 0 W/m2
22:32 59.5 °F /  15.3 °C 34 °F /  1.1 °C 29.9in /  1011.2hPa ESE 4mph /  6.4km/h 6mph /  9.7km/h 38% 0in /  0.0mm 0 W/m2
22:37 59.5 °F /  15.3 °C 34 °F /  1.1 °C 29.9in /  1011.5hPa East 2mph /  3.2km/h 3mph /  4.8km/h 38% 0in /  0.0mm 0 W/m2
22:42 59.4 °F /  15.2 °C 33.8 °F /  1 °C 29.9in /  1011.2hPa NE 2.9mph /  4.7km/h 9mph /  14.5km/h 38% 0in /  0.0mm 0 W/m2
22:47 59.5 °F /  15.3 °C 34 °F /  1.1 °C 29.9in /  1011.2hPa ENE 2.9mph /  4.7km/h 10mph /  16.1km/h 38% 0in /  0.0mm 0 W/m2
22:52 59.5 °F /  15.3 °C 34 °F /  1.1 °C 29.9in /  1011.2hPa ENE 2.9mph /  4.7km/h 5mph /  8km/h 38% 0in /  0.0mm 0 W/m2
22:57 59.5 °F /  15.3 °C 34 °F /  1.1 °C 29.9in /  1011.2hPa ESE 2.9mph /  4.7km/h 10mph /  16.1km/h 38% 0in /  0.0mm 0 W/m2
23:02 59.4 °F /  15.2 °C 34.3 °F /  1.3 °C 29.9in /  1011.5hPa East 0.9mph /  1.4km/h 4mph /  6.4km/h 39% 0in /  0.0mm 0 W/m2
23:07 59.2 °F /  15.1 °C 33.6 °F /  0.9 °C 29.9in /  1011.2hPa SSE 2.9mph /  4.7km/h 8mph /  12.9km/h 38% 0in /  0.0mm 0 W/m2
23:12 59.2 °F /  15.1 °C 34.2 °F /  1.2 °C 29.9in /  1011.5hPa ESE 2mph /  3.2km/h 7mph /  11.3km/h 39% 0in /  0.0mm 0 W/m2
23:17 59 °F /  15 °C 34.2 °F /  1.2 °C 29.9in /  1011.5hPa SE 4mph /  6.4km/h 5mph /  8km/h 39% 0in /  0.0mm 0 W/m2
23:22 59 °F /  15 °C 33.4 °F /  0.8 °C 29.9in /  1011.5hPa Calm   8mph /  12.9km/h 38% 0in /  0.0mm 0 W/m2
23:27 58.8 °F /  14.9 °C 34 °F /  1.1 °C 29.9in /  1011.5hPa East 8.1mph /  13km/h 10mph /  16.1km/h 39% 0in /  0.0mm 0 W/m2
23:32 59 °F /  15 °C 33.4 °F /  0.8 °C 29.9in /  1011.5hPa ENE 4mph /  6.4km/h 9mph /  14.5km/h 38% 0in /  0.0mm 0 W/m2
23:37 59 °F /  15 °C 33.4 °F /  0.8 °C 29.9in /  1011.5hPa East 6.9mph /  11.1km/h 9mph /  14.5km/h 38% 0in /  0.0mm 0 W/m2
23:42 58.8 °F /  14.9 °C 33.3 °F /  0.7 °C 29.9in /  1011.5hPa NNE 4.9mph /  7.9km/h 10mph /  16.1km/h 38% 0in /  0.0mm 0 W/m2
23:47 58.8 °F /  14.9 °C 33.3 °F /  0.7 °C 29.9in /  1011.5hPa East 2mph /  3.2km/h 10mph /  16.1km/h 38% 0in /  0.0mm 0 W/m2
23:52 58.6 °F /  14.8 °C 33.8 °F /  1 °C 29.9in /  1011.5hPa East 0.9mph /  1.4km/h 6mph /  9.7km/h 39% 0in /  0.0mm 0 W/m2
23:57 58.6 °F /  14.8 °C 33.8 °F /  1 °C 29.9in /  1011.5hPa SE 4mph /  6.4km/h 9mph /  14.5km/h 39% 0in /  0.0mm 0 W/m2
Juneau County Weather
Compliments of Weather Underground - 2 mb